createdAt,value
2017-04-23T00:00:01.018Z,9.40
2017-04-23T00:01:00.302Z,9.40
2017-04-23T00:01:59.434Z,9.40
2017-04-23T00:02:58.663Z,9.40
2017-04-23T00:03:58.570Z,9.30
2017-04-23T00:04:57.658Z,9.40
2017-04-23T00:05:57.583Z,9.30
2017-04-23T00:06:56.761Z,9.30
2017-04-23T00:07:55.906Z,9.30
2017-04-23T00:08:55.786Z,9.30
2017-04-23T00:09:54.914Z,9.30
2017-04-23T00:10:54.120Z,9.20
2017-04-23T00:11:53.194Z,9.30
2017-04-23T00:12:52.327Z,9.30
2017-04-23T00:13:51.439Z,9.30
2017-04-23T00:14:50.570Z,9.30
2017-04-23T00:15:49.674Z,9.20
2017-04-23T00:16:49.502Z,9.20
2017-04-23T00:17:48.672Z,9.20
2017-04-23T00:18:47.839Z,9.20
2017-04-23T00:19:47.658Z,9.20
2017-04-23T00:20:46.790Z,9.20
2017-04-23T00:21:45.890Z,9.20
2017-04-23T00:22:45.750Z,9.20
2017-04-23T00:23:44.891Z,9.20
2017-04-23T00:24:44.052Z,9.20
2017-04-23T00:25:43.916Z,9.20
2017-04-23T00:26:43.030Z,9.20
2017-04-23T00:27:42.126Z,9.20
2017-04-23T00:28:41.218Z,9.10
2017-04-23T00:29:40.306Z,9.20
2017-04-23T00:30:39.434Z,9.20
2017-04-23T00:31:38.567Z,9.20
2017-04-23T00:32:37.670Z,9.20
2017-04-23T00:33:36.742Z,9.20
2017-04-23T00:34:35.855Z,9.20
2017-04-23T00:35:35.718Z,9.10
2017-04-23T00:36:34.846Z,9.20
2017-04-23T00:37:33.935Z,9.20
2017-04-23T00:38:33.006Z,9.10
2017-04-23T00:39:32.891Z,9.10
2017-04-23T00:40:32.770Z,9.10
2017-04-23T00:41:31.890Z,9.10
2017-04-23T00:42:31.058Z,9.10
2017-04-23T00:43:30.934Z,9.00
2017-04-23T00:44:30.035Z,9.00
2017-04-23T00:45:29.906Z,9.00
2017-04-23T00:46:29.025Z,9.00
2017-04-23T00:47:28.137Z,9.00
2017-04-23T00:48:27.364Z,9.00
2017-04-23T00:49:26.611Z,8.90
2017-04-23T00:50:25.758Z,8.90
2017-04-23T00:51:24.886Z,8.90
2017-04-23T00:52:24.218Z,8.90
2017-04-23T00:53:23.375Z,8.90
2017-04-23T00:54:23.299Z,8.90
2017-04-23T00:55:22.390Z,8.90
2017-04-23T00:56:21.511Z,8.90
2017-04-23T00:57:20.574Z,8.90
2017-04-23T00:58:19.766Z,8.90
2017-04-23T00:59:18.863Z,8.80
2017-04-23T01:00:18.018Z,8.90
2017-04-23T01:01:17.154Z,8.80
2017-04-23T01:02:16.290Z,8.90
2017-04-23T01:03:15.390Z,8.90
2017-04-23T01:04:14.552Z,8.90
2017-04-23T01:05:13.710Z,8.90
2017-04-23T01:06:12.844Z,8.80
2017-04-23T01:07:12.707Z,8.80
2017-04-23T01:08:11.823Z,8.80
2017-04-23T01:09:11.706Z,8.80
2017-04-23T01:10:10.899Z,8.80
2017-04-23T01:11:10.886Z,8.80
2017-04-23T01:12:10.049Z,8.80
2017-04-23T01:13:09.138Z,8.70
2017-04-23T01:14:09.267Z,8.80
2017-04-23T01:15:09.186Z,8.80
2017-04-23T01:16:08.282Z,8.80
2017-04-23T01:17:07.378Z,8.70
2017-04-23T01:18:06.522Z,8.70
2017-04-23T01:19:05.661Z,8.70
2017-04-23T01:20:04.763Z,8.70
2017-04-23T01:21:04.598Z,8.70
2017-04-23T01:22:03.706Z,8.70
2017-04-23T01:23:02.837Z,8.70
2017-04-23T01:24:01.983Z,8.70
2017-04-23T01:25:01.078Z,8.70
2017-04-23T01:26:00.946Z,8.70
2017-04-23T01:27:00.094Z,8.70
2017-04-23T01:27:59.271Z,8.70
2017-04-23T01:28:58.450Z,8.70
2017-04-23T01:29:57.910Z,8.80
2017-04-23T01:30:57.874Z,8.70
2017-04-23T01:31:57.066Z,8.70
2017-04-23T01:32:56.310Z,8.70
2017-04-23T01:33:55.523Z,8.70
2017-04-23T01:34:54.655Z,8.80
2017-04-23T01:35:53.842Z,8.80
2017-04-23T01:36:52.942Z,8.80
2017-04-23T01:37:52.067Z,8.80
2017-04-23T01:38:51.182Z,8.80
2017-04-23T01:39:50.322Z,8.80
2017-04-23T01:40:49.419Z,8.80
2017-04-23T01:41:49.355Z,8.80
2017-04-23T01:42:48.450Z,8.80
2017-04-23T01:43:47.539Z,8.80
2017-04-23T01:44:46.646Z,8.80
2017-04-23T01:45:45.750Z,8.80
2017-04-23T01:46:44.875Z,8.80
2017-04-23T01:47:44.572Z,8.80
2017-04-23T01:48:43.861Z,8.80
2017-04-23T01:49:43.035Z,8.80
2017-04-23T01:50:42.151Z,8.80
2017-04-23T01:51:41.982Z,8.80
2017-04-23T01:52:41.194Z,8.80
2017-04-23T01:53:40.352Z,8.70
2017-04-23T01:54:39.474Z,8.80
2017-04-23T01:55:38.606Z,8.80
2017-04-23T01:56:37.710Z,8.80
2017-04-23T01:57:36.795Z,8.80
2017-04-23T01:58:35.878Z,8.80
2017-04-23T01:59:35.330Z,8.80
2017-04-23T02:00:34.473Z,8.80
2017-04-23T02:01:34.322Z,8.80
2017-04-23T02:02:33.494Z,8.80
2017-04-23T02:03:32.619Z,8.80
2017-04-23T02:04:31.734Z,8.80
2017-04-23T02:05:30.927Z,8.80
2017-04-23T02:06:30.046Z,8.80
2017-04-23T02:07:29.215Z,8.80
2017-04-23T02:08:28.385Z,8.80
2017-04-23T02:09:27.526Z,8.70
2017-04-23T02:10:26.654Z,8.70
2017-04-23T02:11:25.835Z,8.70
2017-04-23T02:12:24.958Z,8.70
2017-04-23T02:13:24.849Z,8.70
2017-04-23T02:14:24.093Z,8.70
2017-04-23T02:15:23.174Z,8.80
2017-04-23T02:16:22.438Z,8.70
2017-04-23T02:17:21.551Z,8.70
2017-04-23T02:18:20.698Z,8.80
2017-04-23T02:19:19.818Z,8.80
2017-04-23T02:20:18.907Z,8.80
2017-04-23T02:21:18.039Z,8.80
2017-04-23T02:22:17.122Z,8.80
2017-04-23T02:23:16.291Z,8.70
2017-04-23T02:24:15.451Z,8.70
2017-04-23T02:25:15.369Z,8.70
2017-04-23T02:26:14.498Z,8.70
2017-04-23T02:27:13.612Z,8.70
2017-04-23T02:28:13.471Z,8.70
2017-04-23T02:29:12.654Z,8.70
2017-04-23T02:30:11.800Z,8.70
2017-04-23T02:31:10.894Z,8.70
2017-04-23T02:32:10.071Z,8.70
2017-04-23T02:33:09.222Z,8.70
2017-04-23T02:35:33.192Z,8.70
2017-04-23T02:36:32.311Z,8.70
2017-04-23T02:37:31.446Z,8.70
2017-04-23T02:38:30.550Z,8.70
2017-04-23T02:39:29.667Z,8.70
2017-04-23T02:40:28.829Z,8.70
2017-04-23T02:41:27.974Z,8.70
2017-04-23T02:42:27.098Z,8.70
2017-04-23T02:43:26.955Z,8.70
2017-04-23T02:44:26.155Z,8.70
2017-04-23T02:45:25.318Z,8.70
2017-04-23T02:46:24.475Z,8.70
2017-04-23T02:47:24.386Z,8.70
2017-04-23T02:48:23.475Z,8.70
2017-04-23T02:49:22.678Z,8.70
2017-04-23T02:50:21.790Z,8.70
2017-04-23T02:51:20.975Z,8.70
2017-04-23T02:52:20.090Z,8.70
2017-04-23T02:53:19.298Z,8.70
2017-04-23T02:54:41.985Z,8.70
2017-04-23T02:55:41.828Z,8.70
2017-04-23T02:56:40.941Z,8.70
2017-04-23T02:57:40.039Z,8.70
2017-04-23T02:58:39.934Z,8.70
2017-04-23T02:59:39.056Z,8.70
2017-04-23T03:00:38.178Z,8.60
2017-04-23T03:01:37.310Z,8.60
2017-04-23T03:02:36.415Z,8.60
2017-04-23T03:03:35.506Z,8.70
2017-04-23T03:04:34.659Z,8.60
2017-04-23T03:05:33.758Z,8.60
2017-04-23T03:06:32.858Z,8.60
2017-04-23T03:07:31.934Z,8.60
2017-04-23T03:08:31.068Z,8.60
2017-04-23T03:09:30.235Z,8.60
2017-04-23T03:10:29.372Z,8.60
2017-04-23T03:11:28.496Z,8.50
2017-04-23T03:12:27.627Z,8.60
2017-04-23T03:13:26.820Z,8.60
2017-04-23T03:14:25.943Z,8.60
2017-04-23T03:15:25.071Z,8.60
2017-04-23T03:16:24.355Z,8.60
2017-04-23T03:17:23.450Z,8.60
2017-04-23T03:18:22.574Z,8.60
2017-04-23T03:19:21.690Z,8.60
2017-04-23T03:20:21.534Z,8.60
2017-04-23T03:21:21.502Z,8.60
2017-04-23T03:22:20.650Z,8.60
2017-04-23T03:23:19.734Z,8.60
2017-04-23T03:24:18.824Z,8.60
2017-04-23T03:25:17.898Z,8.60
2017-04-23T03:26:17.068Z,8.60
2017-04-23T03:27:16.238Z,8.60
2017-04-23T03:28:15.414Z,8.50
2017-04-23T03:29:14.583Z,8.50
2017-04-23T03:30:13.755Z,8.50
2017-04-23T03:31:13.638Z,8.50
2017-04-23T03:32:12.748Z,8.50
2017-04-23T03:33:11.851Z,8.50
2017-04-23T03:34:11.102Z,8.50
2017-04-23T03:35:10.955Z,8.50
2017-04-23T03:36:10.050Z,8.50
2017-04-23T03:37:09.163Z,8.50
2017-04-23T03:38:08.231Z,8.50
2017-04-23T03:39:08.073Z,8.50
2017-04-23T03:40:07.471Z,8.50
2017-04-23T03:41:06.585Z,8.50
2017-04-23T03:42:06.490Z,8.50
2017-04-23T03:43:06.324Z,8.50
2017-04-23T03:44:05.418Z,8.50
2017-04-23T03:45:04.535Z,8.50
2017-04-23T03:46:04.098Z,8.50
2017-04-23T03:47:03.271Z,8.50
2017-04-23T03:48:02.391Z,8.50
2017-04-23T03:49:02.234Z,8.50
2017-04-23T03:50:01.486Z,8.50
2017-04-23T03:51:00.622Z,8.50
2017-04-23T03:51:59.806Z,8.50
2017-04-23T03:52:58.920Z,8.50
2017-04-23T03:53:58.819Z,8.50
2017-04-23T03:54:58.694Z,8.50
2017-04-23T03:55:57.818Z,8.50
2017-04-23T03:56:56.928Z,8.50
2017-04-23T03:57:56.153Z,8.50
2017-04-23T03:58:56.075Z,8.50
2017-04-23T03:59:55.203Z,8.50
2017-04-23T04:00:54.639Z,8.50
2017-04-23T04:01:54.507Z,8.50
2017-04-23T04:02:53.591Z,8.50
2017-04-23T04:03:52.752Z,8.50
2017-04-23T04:04:51.850Z,8.50
2017-04-23T04:05:50.962Z,8.50
2017-04-23T04:06:50.038Z,8.40
2017-04-23T04:07:49.546Z,8.40
2017-04-23T04:08:49.051Z,8.50
2017-04-23T04:09:48.198Z,8.40
2017-04-23T04:10:47.326Z,8.40
2017-04-23T04:11:46.411Z,8.40
2017-04-23T04:12:44.743Z,8.40
2017-04-23T04:13:43.856Z,8.40
2017-04-23T04:14:42.954Z,8.40
2017-04-23T04:15:42.098Z,8.40
2017-04-23T04:16:40.443Z,8.40
2017-04-23T04:17:38.778Z,8.40
2017-04-23T04:18:37.858Z,8.40
2017-04-23T04:19:36.959Z,8.40
2017-04-23T04:20:36.075Z,8.40
2017-04-23T04:21:34.479Z,8.40
2017-04-23T04:22:33.598Z,8.40
2017-04-23T04:23:32.778Z,8.40
2017-04-23T04:24:31.899Z,8.40
2017-04-23T04:25:31.035Z,8.40
2017-04-23T04:26:30.131Z,8.40
2017-04-23T04:27:29.283Z,8.40
2017-04-23T04:28:28.575Z,8.50
2017-04-23T04:29:27.679Z,8.50
2017-04-23T04:30:26.819Z,8.50
2017-04-23T04:31:25.939Z,8.50
2017-04-23T04:32:25.075Z,8.50
2017-04-23T04:33:24.222Z,8.50
2017-04-23T04:34:23.299Z,8.50
2017-04-23T04:35:22.391Z,8.50
2017-04-23T04:36:22.306Z,8.40
2017-04-23T04:37:21.494Z,8.50
2017-04-23T04:38:20.579Z,8.50
2017-04-23T04:39:19.719Z,8.50
2017-04-23T04:40:18.814Z,8.50
2017-04-23T04:41:18.622Z,8.50
2017-04-23T04:42:18.017Z,8.50
2017-04-23T04:43:17.123Z,8.50
2017-04-23T04:44:16.254Z,8.50
2017-04-23T04:45:16.150Z,8.50
2017-04-23T04:46:15.990Z,8.50
2017-04-23T04:47:15.111Z,8.50
2017-04-23T04:48:14.264Z,8.50
2017-04-23T04:49:14.155Z,8.50
2017-04-23T04:50:13.382Z,8.60
2017-04-23T04:51:13.283Z,8.60
2017-04-23T04:52:13.158Z,8.60
2017-04-23T04:53:12.288Z,8.60
2017-04-23T04:54:11.407Z,8.60
2017-04-23T04:55:10.510Z,8.60
2017-04-23T04:56:09.622Z,8.60
2017-04-23T04:57:08.786Z,8.60
2017-04-23T04:58:08.671Z,8.60
2017-04-23T04:59:08.522Z,8.60
2017-04-23T05:00:07.605Z,8.60
2017-04-23T05:01:06.702Z,8.70
2017-04-23T05:02:05.779Z,8.70
2017-04-23T05:03:04.910Z,8.70
2017-04-23T05:04:04.746Z,8.70
2017-04-23T05:05:04.366Z,8.70
2017-04-23T05:07:03.622Z,8.70
2017-04-23T05:08:02.734Z,8.70
2017-04-23T05:09:01.898Z,8.80
2017-04-23T05:10:01.018Z,8.70
2017-04-23T05:11:00.870Z,8.80
2017-04-23T05:11:59.990Z,8.80
2017-04-23T05:12:59.846Z,8.80
2017-04-23T05:13:58.982Z,8.80
2017-04-23T05:14:58.522Z,8.80
2017-04-23T05:15:57.654Z,8.80
2017-04-23T05:16:56.799Z,8.80
2017-04-23T05:17:55.919Z,8.80
2017-04-23T05:18:55.463Z,8.80
2017-04-23T05:19:54.573Z,8.90
2017-04-23T05:20:54.486Z,8.90
2017-04-23T05:21:53.623Z,8.90
2017-04-23T05:22:52.946Z,8.90
2017-04-23T05:23:52.790Z,8.90
2017-04-23T05:24:51.883Z,8.90
2017-04-23T05:25:50.990Z,8.90
2017-04-23T05:26:50.859Z,8.90
2017-04-23T05:27:49.967Z,8.90
2017-04-23T05:28:49.811Z,9.00
2017-04-23T05:29:48.938Z,9.00
2017-04-23T05:30:48.767Z,9.00
2017-04-23T05:31:47.850Z,9.00
2017-04-23T05:32:47.203Z,9.00
2017-04-23T05:33:46.335Z,9.00
2017-04-23T05:34:45.495Z,9.00
2017-04-23T05:35:44.634Z,9.10
2017-04-23T05:36:43.742Z,9.10
2017-04-23T05:37:42.824Z,9.10
2017-04-23T05:38:41.970Z,9.10
2017-04-23T05:39:41.039Z,9.10
2017-04-23T05:40:40.126Z,9.10
2017-04-23T05:41:39.205Z,9.10
2017-04-23T05:42:38.295Z,9.10
2017-04-23T05:43:37.391Z,9.10
2017-04-23T05:44:36.795Z,9.10
2017-04-23T05:45:35.910Z,9.10
2017-04-23T05:46:35.041Z,9.10
2017-04-23T05:47:34.146Z,9.10
2017-04-23T05:48:33.364Z,9.10
2017-04-23T05:49:32.473Z,9.10
2017-04-23T05:50:32.762Z,9.10
2017-04-23T05:51:31.871Z,9.10
2017-04-23T05:52:30.970Z,9.20
2017-04-23T05:53:30.092Z,9.20
2017-04-23T05:54:29.198Z,9.20
2017-04-23T05:55:29.055Z,9.10
2017-04-23T05:56:28.652Z,9.20
2017-04-23T05:57:27.806Z,9.20
2017-04-23T05:58:26.939Z,9.20
2017-04-23T05:59:26.831Z,9.20
2017-04-23T06:00:25.979Z,9.30
2017-04-23T06:01:25.184Z,9.30
2017-04-23T06:02:24.442Z,9.30
2017-04-23T06:03:23.579Z,9.30
2017-04-23T06:04:22.702Z,9.20
2017-04-23T06:05:21.810Z,9.20
2017-04-23T06:06:21.139Z,9.20
2017-04-23T06:07:20.266Z,9.20
2017-04-23T06:08:20.132Z,9.10
2017-04-23T06:09:19.226Z,9.20
2017-04-23T06:10:18.302Z,9.20
2017-04-23T06:11:17.446Z,9.20
2017-04-23T06:12:17.658Z,9.10
2017-04-23T06:13:16.774Z,9.20
2017-04-23T06:14:15.979Z,9.20
2017-04-23T06:15:15.078Z,9.20
2017-04-23T06:16:48.537Z,9.20
2017-04-23T06:17:47.663Z,9.20
2017-04-23T06:18:46.796Z,9.20
2017-04-23T06:19:46.250Z,9.20
2017-04-23T06:20:45.455Z,9.30
2017-04-23T06:21:45.266Z,9.30
2017-04-23T06:22:44.402Z,9.30
2017-04-23T06:23:43.535Z,9.40
2017-04-23T06:24:42.670Z,9.40
2017-04-23T06:25:41.837Z,9.40
2017-04-23T06:26:40.950Z,9.40
2017-04-23T06:27:40.099Z,9.40
2017-04-23T06:28:39.208Z,9.40
2017-04-23T06:29:38.330Z,9.50
2017-04-23T06:30:38.178Z,9.50
2017-04-23T06:31:37.386Z,9.50
2017-04-23T06:32:36.507Z,9.50
2017-04-23T06:33:35.582Z,9.50
2017-04-23T06:34:34.694Z,9.50
2017-04-23T06:35:33.791Z,9.50
2017-04-23T06:36:32.882Z,9.50
2017-04-23T06:37:32.359Z,9.50
2017-04-23T06:38:31.498Z,9.50
2017-04-23T06:39:30.666Z,9.50
2017-04-23T06:40:29.774Z,9.50
2017-04-23T06:41:28.895Z,9.60
2017-04-23T06:42:28.042Z,9.60
2017-04-23T06:43:27.521Z,9.60
2017-04-23T06:44:26.646Z,9.60
2017-04-23T06:45:25.745Z,9.70
2017-04-23T06:46:24.862Z,9.70
2017-04-23T06:47:23.982Z,9.80
2017-04-23T06:48:23.108Z,9.80
2017-04-23T06:49:22.283Z,9.90
2017-04-23T06:50:21.375Z,10.00
2017-04-23T06:51:20.454Z,10.00
2017-04-23T06:52:19.562Z,10.10
2017-04-23T06:53:18.657Z,10.20
2017-04-23T06:54:17.767Z,10.20
2017-04-23T06:55:17.698Z,10.30
2017-04-23T06:56:16.810Z,10.30
2017-04-23T06:57:15.954Z,10.30
2017-04-23T06:58:15.080Z,10.30
2017-04-23T06:59:14.242Z,10.40
2017-04-23T07:00:13.418Z,10.40
2017-04-23T07:01:12.590Z,10.50
2017-04-23T07:02:11.686Z,10.60
2017-04-23T07:03:10.852Z,10.60
2017-04-23T07:04:09.970Z,10.70
2017-04-23T07:05:09.874Z,10.70
2017-04-23T07:06:09.095Z,10.80
2017-04-23T07:07:08.246Z,10.80
2017-04-23T07:08:08.144Z,10.90
2017-04-23T07:09:08.006Z,10.90
2017-04-23T07:10:07.119Z,11.00
2017-04-23T07:11:07.104Z,11.00
2017-04-23T07:12:06.179Z,11.00
2017-04-23T07:13:05.311Z,11.00
2017-04-23T07:14:04.458Z,11.10
2017-04-23T07:15:03.578Z,11.10
2017-04-23T07:16:02.726Z,11.10
2017-04-23T07:17:01.939Z,11.10
2017-04-23T07:18:01.082Z,11.10
2017-04-23T07:19:00.251Z,11.20
2017-04-23T07:19:59.371Z,11.20
2017-04-23T07:20:58.499Z,11.20
2017-04-23T07:21:57.636Z,11.30
2017-04-23T07:22:56.790Z,11.30
2017-04-23T07:23:56.751Z,11.20
2017-04-23T07:24:56.000Z,11.20
2017-04-23T07:25:55.110Z,11.20
2017-04-23T07:26:54.254Z,11.20
2017-04-23T07:27:53.429Z,11.30
2017-04-23T07:28:52.506Z,11.30
2017-04-23T07:29:52.331Z,11.30
2017-04-23T07:30:51.495Z,11.30
2017-04-23T07:31:50.570Z,11.30
2017-04-23T07:32:49.667Z,11.30
2017-04-23T07:33:48.772Z,11.30
2017-04-23T07:34:47.894Z,11.40
2017-04-23T07:35:47.763Z,11.40
2017-04-23T07:36:47.246Z,11.40
2017-04-23T07:37:47.115Z,11.50
2017-04-23T07:38:46.283Z,11.50
2017-04-23T07:39:45.420Z,11.60
2017-04-23T07:40:44.534Z,11.70
2017-04-23T07:41:43.655Z,11.70
2017-04-23T07:42:42.816Z,11.70
2017-04-23T07:43:41.928Z,11.80
2017-04-23T07:44:41.086Z,11.90
2017-04-23T07:45:40.181Z,12.00
2017-04-23T07:46:39.326Z,12.00
2017-04-23T07:47:38.439Z,12.10
2017-04-23T07:48:37.566Z,12.20
2017-04-23T07:49:37.422Z,12.20
2017-04-23T07:50:36.506Z,12.20
2017-04-23T07:51:35.634Z,12.20
2017-04-23T07:52:34.714Z,12.20
2017-04-23T07:53:33.835Z,12.30
2017-04-23T07:54:32.979Z,12.30
2017-04-23T07:55:32.134Z,12.40
2017-04-23T07:56:31.986Z,12.40
2017-04-23T07:57:31.357Z,12.50
2017-04-23T07:58:30.494Z,12.50
2017-04-23T07:59:29.589Z,12.50
2017-04-23T08:00:29.538Z,12.60
2017-04-23T08:01:28.690Z,12.70
2017-04-23T08:02:27.834Z,12.80
2017-04-23T08:03:26.971Z,12.80
2017-04-23T08:04:26.095Z,12.90
2017-04-23T08:05:25.214Z,13.00
2017-04-23T08:06:24.435Z,13.00
2017-04-23T08:07:23.523Z,13.10
2017-04-23T08:08:22.624Z,13.10
2017-04-23T08:09:21.719Z,13.20
2017-04-23T08:10:20.799Z,13.20
2017-04-23T08:11:19.914Z,13.20
2017-04-23T08:12:19.038Z,13.20
2017-04-23T08:13:18.916Z,13.20
2017-04-23T08:15:17.446Z,13.20
2017-04-23T08:16:16.571Z,13.20
2017-04-23T08:17:15.675Z,13.20
2017-04-23T08:18:15.598Z,13.10
2017-04-23T08:19:14.732Z,13.10
2017-04-23T08:20:13.862Z,13.10
2017-04-23T08:21:12.986Z,13.20
2017-04-23T08:22:12.098Z,13.20
2017-04-23T08:23:11.955Z,13.20
2017-04-23T08:24:11.059Z,13.30
2017-04-23T08:25:10.158Z,13.30
2017-04-23T08:26:09.291Z,13.40
2017-04-23T08:27:08.434Z,13.50
2017-04-23T08:28:07.534Z,13.50
2017-04-23T08:29:06.633Z,13.60
2017-04-23T08:30:05.754Z,13.60
2017-04-23T08:31:05.607Z,13.70
2017-04-23T08:32:04.738Z,13.80
2017-04-23T08:33:03.878Z,13.80
2017-04-23T08:34:03.046Z,13.90
2017-04-23T08:35:02.154Z,13.90
2017-04-23T08:36:01.299Z,13.90
2017-04-23T08:37:00.410Z,14.00
2017-04-23T08:37:59.508Z,14.10
2017-04-23T08:38:59.371Z,14.20
2017-04-23T08:39:58.487Z,14.30
2017-04-23T08:40:58.451Z,14.40
2017-04-23T08:41:57.574Z,14.40
2017-04-23T08:42:57.490Z,14.50
2017-04-23T08:43:59.688Z,14.60
2017-04-23T08:44:58.851Z,14.70
2017-04-23T08:45:57.990Z,14.70
2017-04-23T08:46:57.175Z,14.80
2017-04-23T08:47:56.337Z,14.80
2017-04-23T08:48:56.236Z,14.90
2017-04-23T08:49:56.160Z,14.90
2017-04-23T08:50:55.283Z,15.00
2017-04-23T08:51:54.379Z,15.10
2017-04-23T08:52:53.474Z,15.10
2017-04-23T08:53:53.331Z,15.20
2017-04-23T08:54:52.407Z,15.30
2017-04-23T08:55:51.569Z,15.40
2017-04-23T08:56:50.678Z,15.40
2017-04-23T08:57:49.771Z,15.50
2017-04-23T08:58:49.264Z,15.50
2017-04-23T08:59:48.374Z,15.50
2017-04-23T09:00:46.714Z,15.50
2017-04-23T09:01:46.630Z,15.40
2017-04-23T09:02:46.506Z,15.40
2017-04-23T09:03:45.639Z,15.40
2017-04-23T09:04:44.808Z,15.40
2017-04-23T09:05:43.911Z,15.40
2017-04-23T09:06:43.063Z,15.40
2017-04-23T09:07:42.188Z,15.50
2017-04-23T09:08:41.287Z,15.50
2017-04-23T09:09:40.394Z,15.50
2017-04-23T09:10:39.535Z,15.50
2017-04-23T09:12:38.499Z,15.50
2017-04-23T09:13:37.590Z,15.50
2017-04-23T09:14:36.674Z,15.60
2017-04-23T09:15:35.839Z,15.70
2017-04-23T09:16:34.978Z,15.70
2017-04-23T09:17:34.086Z,15.80
2017-04-23T09:18:33.231Z,15.90
2017-04-23T09:19:32.335Z,15.90
2017-04-23T09:20:31.434Z,16.00
2017-04-23T09:21:30.590Z,16.10
2017-04-23T09:22:29.734Z,16.10
2017-04-23T09:23:29.622Z,16.00
2017-04-23T09:24:28.790Z,16.00
2017-04-23T09:25:27.889Z,16.00
2017-04-23T09:26:27.809Z,15.90
2017-04-23T09:27:26.965Z,15.80
2017-04-23T09:28:26.144Z,15.70
2017-04-23T09:29:26.035Z,15.60
2017-04-23T09:30:25.183Z,15.50
2017-04-23T09:31:24.318Z,15.40
2017-04-23T09:32:24.198Z,15.30
2017-04-23T09:33:23.923Z,15.20
2017-04-23T09:34:23.022Z,15.20
2017-04-23T09:35:22.110Z,15.10
2017-04-23T09:36:21.263Z,15.10
2017-04-23T09:37:20.377Z,15.00
2017-04-23T09:38:19.462Z,14.90
2017-04-23T09:39:18.579Z,14.80
2017-04-23T09:40:18.405Z,14.70
2017-04-23T09:41:17.490Z,14.60
2017-04-23T09:42:16.682Z,14.50
2017-04-23T09:43:15.777Z,14.40
2017-04-23T09:44:14.894Z,14.30
2017-04-23T09:45:13.236Z,14.30
2017-04-23T09:46:11.587Z,14.20
2017-04-23T09:47:10.694Z,14.00
2017-04-23T09:48:09.839Z,13.90
2017-04-23T09:49:08.962Z,13.90
2017-04-23T09:50:08.055Z,13.80
2017-04-23T09:51:07.178Z,13.80
2017-04-23T09:52:06.324Z,13.80
2017-04-23T09:53:05.454Z,13.80
2017-04-23T09:54:04.607Z,13.80
2017-04-23T09:55:03.715Z,13.90
2017-04-23T09:56:02.823Z,13.90
2017-04-23T09:57:02.674Z,14.00
2017-04-23T09:58:01.798Z,14.20
2017-04-23T09:59:00.919Z,14.40
2017-04-23T10:00:00.100Z,14.50
2017-04-23T10:00:59.220Z,14.70
2017-04-23T10:01:58.318Z,14.90
2017-04-23T10:02:57.443Z,15.10
2017-04-23T10:03:56.550Z,15.20
2017-04-23T10:04:55.691Z,15.40
2017-04-23T10:05:54.834Z,15.60
2017-04-23T10:06:53.986Z,15.80
2017-04-23T10:07:53.810Z,15.80
2017-04-23T10:08:52.906Z,15.90
2017-04-23T10:09:52.756Z,15.90
2017-04-23T10:10:51.842Z,15.90
2017-04-23T10:11:51.026Z,15.90
2017-04-23T10:12:50.234Z,15.80
2017-04-23T10:13:49.307Z,15.70
2017-04-23T10:14:48.426Z,15.70
2017-04-23T10:15:47.523Z,15.70
2017-04-23T10:16:46.679Z,15.80
2017-04-23T10:17:45.895Z,15.80
2017-04-23T10:18:45.015Z,15.80
2017-04-23T10:19:44.123Z,15.80
2017-04-23T10:20:43.243Z,15.80
2017-04-23T10:21:42.359Z,15.80
2017-04-23T10:22:42.230Z,15.80
2017-04-23T10:23:41.382Z,15.70
2017-04-23T10:24:40.490Z,15.60
2017-04-23T10:25:39.602Z,15.50
2017-04-23T10:26:38.686Z,15.40
2017-04-23T10:27:37.046Z,15.40
2017-04-23T10:28:36.862Z,15.20
2017-04-23T10:29:36.003Z,15.20
2017-04-23T10:30:35.106Z,15.10
2017-04-23T10:31:34.962Z,15.00
2017-04-23T10:32:34.094Z,14.90
2017-04-23T10:33:33.275Z,14.80
2017-04-23T10:34:32.382Z,14.70
2017-04-23T10:35:31.891Z,14.70
2017-04-23T10:36:31.041Z,14.60
2017-04-23T10:37:30.247Z,14.50
2017-04-23T10:38:29.351Z,14.40
2017-04-23T10:39:28.494Z,14.40
2017-04-23T10:40:27.624Z,14.30
2017-04-23T10:41:26.819Z,14.20
2017-04-23T10:42:26.711Z,14.10
2017-04-23T10:43:26.558Z,14.00
2017-04-23T10:44:25.750Z,13.90
2017-04-23T10:45:24.851Z,13.90
2017-04-23T10:46:23.990Z,13.80
2017-04-23T10:47:23.147Z,13.80
2017-04-23T10:48:22.263Z,13.80
2017-04-23T10:49:21.343Z,13.70
2017-04-23T10:50:20.423Z,13.60
2017-04-23T10:51:19.530Z,13.60
2017-04-23T10:52:18.622Z,13.60
2017-04-23T10:53:17.802Z,13.50
2017-04-23T10:54:16.883Z,13.40
2017-04-23T10:55:15.990Z,13.40
2017-04-23T10:56:15.086Z,13.30
2017-04-23T10:57:14.188Z,13.30
2017-04-23T10:58:13.284Z,13.20
2017-04-23T10:59:12.466Z,13.20
2017-04-23T11:00:11.566Z,13.10
2017-04-23T11:01:11.428Z,13.00
2017-04-23T11:02:10.510Z,13.00
2017-04-23T11:03:10.318Z,13.00
2017-04-23T11:04:09.427Z,12.90
2017-04-23T11:05:09.331Z,12.90
2017-04-23T11:06:09.171Z,12.90
2017-04-23T11:07:08.354Z,13.00
2017-04-23T11:08:07.446Z,13.00
2017-04-23T11:09:06.582Z,13.00
2017-04-23T11:10:05.706Z,13.20
2017-04-23T11:11:04.886Z,13.40
2017-04-23T11:12:03.982Z,13.60
2017-04-23T11:13:03.103Z,13.80
2017-04-23T11:14:02.195Z,14.10
2017-04-23T11:15:01.286Z,14.20
2017-04-23T11:16:00.410Z,14.40
2017-04-23T11:16:59.558Z,14.50
2017-04-23T11:17:58.681Z,14.60
2017-04-23T11:18:57.791Z,14.70
2017-04-23T11:19:56.923Z,14.70
2017-04-23T11:20:56.039Z,14.70
2017-04-23T11:21:55.186Z,14.70
2017-04-23T11:22:54.395Z,14.70
2017-04-23T11:23:53.490Z,14.70
2017-04-23T11:24:52.570Z,14.70
2017-04-23T11:25:51.670Z,14.60
2017-04-23T11:26:50.776Z,14.60
2017-04-23T11:27:49.899Z,14.60
2017-04-23T11:28:49.359Z,14.60
2017-04-23T11:29:48.442Z,14.60
2017-04-23T11:30:48.287Z,14.60
2017-04-23T11:31:47.406Z,14.60
2017-04-23T11:32:46.573Z,14.60
2017-04-23T11:33:45.726Z,14.60
2017-04-23T11:34:44.966Z,14.60
2017-04-23T11:35:44.846Z,14.60
2017-04-23T11:36:43.981Z,14.60
2017-04-23T11:37:43.102Z,14.70
2017-04-23T11:38:42.195Z,14.80
2017-04-23T11:39:41.319Z,14.90
2017-04-23T11:40:40.511Z,15.00
2017-04-23T11:41:39.602Z,15.20
2017-04-23T11:42:38.707Z,15.30
2017-04-23T11:43:37.822Z,15.40
2017-04-23T11:44:36.942Z,15.60
2017-04-23T11:45:36.071Z,15.80
2017-04-23T11:46:36.019Z,16.00
2017-04-23T11:47:35.103Z,16.10
2017-04-23T11:48:34.202Z,16.20
2017-04-23T11:49:33.310Z,16.30
2017-04-23T11:50:33.163Z,16.30
2017-04-23T11:51:32.299Z,16.30
2017-04-23T11:52:31.490Z,16.30
2017-04-23T11:53:30.623Z,16.30
2017-04-23T11:54:29.754Z,16.20
2017-04-23T11:55:28.871Z,16.30
2017-04-23T11:56:27.991Z,16.20
2017-04-23T11:57:27.878Z,16.20
2017-04-23T11:58:27.044Z,16.10
2017-04-23T11:59:26.247Z,16.00
2017-04-23T12:00:26.163Z,16.00
2017-04-23T12:01:25.310Z,15.90
2017-04-23T12:02:24.434Z,15.80
2017-04-23T12:03:23.543Z,15.80
2017-04-23T12:04:22.682Z,15.70
2017-04-23T12:05:21.766Z,15.70
2017-04-23T12:06:20.891Z,15.60
2017-04-23T12:07:20.058Z,15.60
2017-04-23T12:08:19.134Z,15.60
2017-04-23T12:09:18.214Z,15.60
2017-04-23T12:10:17.427Z,15.60
2017-04-23T12:11:16.535Z,15.60
2017-04-23T12:12:16.466Z,15.60
2017-04-23T12:13:15.594Z,15.70
2017-04-23T12:14:14.726Z,15.70
2017-04-23T12:15:13.822Z,15.70
2017-04-23T12:16:13.018Z,15.60
2017-04-23T12:17:12.118Z,15.60
2017-04-23T12:18:11.935Z,15.60
2017-04-23T12:19:11.775Z,15.60
2017-04-23T12:20:10.906Z,15.50
2017-04-23T12:21:10.771Z,15.50
2017-04-23T12:22:09.943Z,15.50
2017-04-23T12:23:09.047Z,15.50
2017-04-23T12:24:08.146Z,15.50
2017-04-23T12:25:07.250Z,15.50
2017-04-23T12:26:06.375Z,15.50
2017-04-23T12:27:05.466Z,15.50
2017-04-23T12:28:04.611Z,15.50
2017-04-23T12:29:03.727Z,15.50
2017-04-23T12:30:02.842Z,15.50
2017-04-23T12:31:01.934Z,15.60
2017-04-23T12:32:01.062Z,15.60
2017-04-23T12:33:00.194Z,15.50
2017-04-23T12:33:59.378Z,15.60
2017-04-23T12:34:58.518Z,15.50
2017-04-23T12:35:57.676Z,15.50
2017-04-23T12:36:56.848Z,15.50
2017-04-23T12:37:55.985Z,15.50
2017-04-23T12:38:55.120Z,15.60
2017-04-23T12:39:54.405Z,15.60
2017-04-23T12:40:53.592Z,15.70
2017-04-23T12:41:52.801Z,15.80
2017-04-23T12:42:51.799Z,15.80
2017-04-23T12:43:50.893Z,15.90
2017-04-23T12:44:50.007Z,15.90
2017-04-23T12:45:49.189Z,15.90
2017-04-23T12:46:48.366Z,15.90
2017-04-23T12:47:47.551Z,15.80
2017-04-23T12:48:46.653Z,15.70
2017-04-23T12:49:46.577Z,15.70
2017-04-23T12:50:45.728Z,15.70
2017-04-23T12:51:45.668Z,15.70
2017-04-23T12:52:44.816Z,15.70
2017-04-23T12:53:44.721Z,15.60
2017-04-23T12:54:43.872Z,15.60
2017-04-23T12:55:42.972Z,15.60
2017-04-23T12:56:42.806Z,15.60
2017-04-23T12:57:41.988Z,15.70
2017-04-23T12:58:41.090Z,15.60
2017-04-23T12:59:40.183Z,15.70
2017-04-23T13:00:39.280Z,15.70